Billings, MT

7:13 PM MDT on October 01, 2014 (GMT -0600)
RAWS SODA SPRINGS MT US | Change Station
CLOSE
Current Station
Personal Weather Station
Location: Billings, MT
Elevation: 4020 ft
Nearby Weather Stations

Elev 4020 ft 45.73 °N, 108.40 °W | Updated 52 minutes ago

Mostly Cloudy
Mostly Cloudy
51 °F
Feels Like 51 °F
N
6
Wind Variable Wind from SW
Gusts 41.0 mph

Today
High -- | Low -- °F
--% Chance of Precip.
Yesterday
High -- | Low -- °F
Precip. -- in
7:11 AM 6:53 PM
First Quarter, 53% visible
Pressure 29.96 in
Visibility 10.0 miles
Clouds Few 6000 ft
Scattered Clouds 9500 ft
Dew Point 34 °F
Humidity 51%
Rainfall 0.00 in
Snow Depth 0 in , 0 in , 0 in
UV 0 out of 12
Pollen 3.00 out of 12
Air Quality Not available.
Flu Activity Not available.
METAR KBIL 020053Z 25004KT 10SM FEW060 SCT095 12/02 A2996 RMK AO2 SLP144 VIRGA T01170017

More Conditions Fewer Conditions

Pressure 29.96 in
Visibility 10.0 miles
Clouds Few 6000 ft
Scattered Clouds 9500 ft
Dew Point 34 °F
Humidity 51%
Rainfall 0.00 in
Snow Depth 0 in , 0 in , 0 in
UV 0 out of 12
Pollen 3.00 out of 12
Air Quality Not available.
Flu Activity Not available.
METAR KBIL 020053Z 25004KT 10SM FEW060 SCT095 12/02 A2996 RMK AO2 SLP144 VIRGA T01170017

More Conditions Fewer Conditions

10-Day Weather Forecast

Almanac

Astronomy

Oct. 01, 2014 Rise Set
Actual Time 7:11 AM MDT 6:53 PM MDT
Civil Twilight 6:42 AM MDT 7:23 PM MDT
Nautical Twilight 6:07 AM MDT 7:57 PM MDT
Astronomical Twilight 5:32 AM MDT 8:32 PM MDT
Moon 2:28 PM MDT (10/1) No Moon Set
Length of Visible Light 12h 40m
Length of Day
11h 41m
Tomorrow will be 3m 11s shorter.
First Quarter, 53% of the Moon is Illuminated
Today
First Quarter
Oct 8
Full
Oct 15
Last Quarter
Oct 23
New
Oct 30
First Quarter

Today's Extremes

State Highs State Lows

Community

WunderPhotos

Upload Photos

1,758,112 photos uploaded!

WunderBlogs® & News

Nearby

Snow Depth

Station Depth Elevation
Mule Creek 0 in 8300 ft
Daisy Peak 0 in 7600 ft
Lick Creek 0 in 6860 ft
Garver Creek 1 in 4250 ft
Twelvemile Creek 0 in 5600 ft

Earthquake Activity

City Distance Mag. Time & Date
No recent earthquake activity has been reported nearby.
Minimum magnitude displayed is 2.5.

Coastal Water Temperatures

Place Temperature
No Stations Reporting

Nearby Weather Stations